sensor_id;sensor_type;location;lat;lon;timestamp;P1;durP1;ratioP1;P2;durP2;ratioP2
23628;SDS011;11991;57.150;-2.134;2022-11-15T00:00:52;12.95;;;7.88;;
23628;SDS011;11991;57.150;-2.134;2022-11-15T00:03:38;14.65;;;9.18;;
23628;SDS011;11991;57.150;-2.134;2022-11-15T00:06:24;15.07;;;8.75;;
23628;SDS011;11991;57.150;-2.134;2022-11-15T00:09:10;13.02;;;7.05;;
23628;SDS011;11991;57.150;-2.134;2022-11-15T00:11:56;22.38;;;12.43;;
23628;SDS011;11991;57.150;-2.134;2022-11-15T00:14:42;13.13;;;7.45;;
23628;SDS011;11991;57.150;-2.134;2022-11-15T00:17:27;21.73;;;12.80;;
23628;SDS011;11991;57.150;-2.134;2022-11-15T00:20:13;13.38;;;8.05;;
23628;SDS011;11991;57.150;-2.134;2022-11-15T00:22:59;15.75;;;8.95;;
23628;SDS011;11991;57.150;-2.134;2022-11-15T00:25:45;13.95;;;8.55;;
23628;SDS011;11991;57.150;-2.134;2022-11-15T00:28:31;12.63;;;6.47;;
23628;SDS011;11991;57.150;-2.134;2022-11-15T00:31:20;10.27;;;6.90;;
23628;SDS011;11991;57.150;-2.134;2022-11-15T00:34:06;15.18;;;8.63;;
23628;SDS011;11991;57.150;-2.134;2022-11-15T00:36:52;12.60;;;6.93;;
23628;SDS011;11991;57.150;-2.134;2022-11-15T00:39:39;14.88;;;7.85;;
23628;SDS011;11991;57.150;-2.134;2022-11-15T00:42:28;23.58;;;12.18;;
23628;SDS011;11991;57.150;-2.134;2022-11-15T00:45:14;14.48;;;8.38;;
23628;SDS011;11991;57.150;-2.134;2022-11-15T00:47:59;24.67;;;13.50;;
23628;SDS011;11991;57.150;-2.134;2022-11-15T00:50:45;16.85;;;9.40;;
23628;SDS011;11991;57.150;-2.134;2022-11-15T00:53:32;18.38;;;9.50;;
23628;SDS011;11991;57.150;-2.134;2022-11-15T00:56:18;15.63;;;9.43;;
23628;SDS011;11991;57.150;-2.134;2022-11-15T00:59:04;11.07;;;6.32;;
23628;SDS011;11991;57.150;-2.134;2022-11-15T01:01:50;11.65;;;6.43;;
23628;SDS011;11991;57.150;-2.134;2022-11-15T01:04:36;11.25;;;6.38;;
23628;SDS011;11991;57.150;-2.134;2022-11-15T01:07:21;17.13;;;9.27;;
23628;SDS011;11991;57.150;-2.134;2022-11-15T01:10:07;16.80;;;9.93;;
23628;SDS011;11991;57.150;-2.134;2022-11-15T01:12:53;15.80;;;9.18;;
23628;SDS011;11991;57.150;-2.134;2022-11-15T01:15:39;18.80;;;9.85;;
23628;SDS011;11991;57.150;-2.134;2022-11-15T01:18:26;18.92;;;9.38;;
23628;SDS011;11991;57.150;-2.134;2022-11-15T01:21:13;11.15;;;7.28;;
23628;SDS011;11991;57.150;-2.134;2022-11-15T01:24:00;11.48;;;6.80;;
23628;SDS011;11991;57.150;-2.134;2022-11-15T01:26:46;9.85;;;6.55;;
23628;SDS011;11991;57.150;-2.134;2022-11-15T01:29:32;14.82;;;8.45;;
23628;SDS011;11991;57.150;-2.134;2022-11-15T01:32:18;9.02;;;4.88;;
23628;SDS011;11991;57.150;-2.134;2022-11-15T01:35:05;11.93;;;6.97;;
23628;SDS011;11991;57.150;-2.134;2022-11-15T01:37:56;17.33;;;8.73;;
23628;SDS011;11991;57.150;-2.134;2022-11-15T01:40:42;11.23;;;7.00;;
23628;SDS011;11991;57.150;-2.134;2022-11-15T01:43:29;21.65;;;12.57;;
23628;SDS011;11991;57.150;-2.134;2022-11-15T01:49:15;9.05;;;5.35;;
23628;SDS011;11991;57.150;-2.134;2022-11-15T01:52:03;17.02;;;9.73;;
23628;SDS011;11991;57.150;-2.134;2022-11-15T01:54:53;12.55;;;7.43;;
23628;SDS011;11991;57.150;-2.134;2022-11-15T01:57:47;10.98;;;6.63;;
23628;SDS011;11991;57.150;-2.134;2022-11-15T02:00:36;14.45;;;8.30;;
23628;SDS011;11991;57.150;-2.134;2022-11-15T02:03:22;12.27;;;7.43;;
23628;SDS011;11991;57.150;-2.134;2022-11-15T02:06:16;14.32;;;8.18;;
23628;SDS011;11991;57.150;-2.134;2022-11-15T02:09:02;12.85;;;7.43;;
23628;SDS011;11991;57.150;-2.134;2022-11-15T02:11:47;17.40;;;10.82;;
23628;SDS011;11991;57.150;-2.134;2022-11-15T02:14:35;14.52;;;9.02;;
23628;SDS011;11991;57.150;-2.134;2022-11-15T02:32:35;13.93;;;7.95;;
23628;SDS011;11991;57.150;-2.134;2022-11-15T02:35:59;13.45;;;8.25;;
23628;SDS011;11991;57.150;-2.134;2022-11-15T02:42:01;18.02;;;10.55;;
23628;SDS011;11991;57.150;-2.134;2022-11-15T02:45:13;13.50;;;8.82;;
23628;SDS011;11991;57.150;-2.134;2022-11-15T02:48:10;11.38;;;7.10;;
23628;SDS011;11991;57.150;-2.134;2022-11-15T02:50:58;11.40;;;8.15;;
23628;SDS011;11991;57.150;-2.134;2022-11-15T02:53:45;11.40;;;6.70;;
23628;SDS011;11991;57.150;-2.134;2022-11-15T02:56:30;9.57;;;6.10;;
23628;SDS011;11991;57.150;-2.134;2022-11-15T03:08:32;7.78;;;5.90;;
23628;SDS011;11991;57.150;-2.134;2022-11-15T03:11:24;12.85;;;8.10;;
23628;SDS011;11991;57.150;-2.134;2022-11-15T03:14:18;11.25;;;7.15;;
23628;SDS011;11991;57.150;-2.134;2022-11-15T03:20:07;13.05;;;6.55;;
23628;SDS011;11991;57.150;-2.134;2022-11-15T03:22:59;10.50;;;4.70;;
23628;SDS011;11991;57.150;-2.134;2022-11-15T03:25:50;17.02;;;9.63;;
23628;SDS011;11991;57.150;-2.134;2022-11-15T03:28:50;12.10;;;7.50;;
23628;SDS011;11991;57.150;-2.134;2022-11-15T03:31:42;12.00;;;6.72;;
23628;SDS011;11991;57.150;-2.134;2022-11-15T03:40:59;10.70;;;7.05;;
23628;SDS011;11991;57.150;-2.134;2022-11-15T03:43:54;9.93;;;6.55;;
23628;SDS011;11991;57.150;-2.134;2022-11-15T03:47:21;13.95;;;8.35;;
23628;SDS011;11991;57.150;-2.134;2022-11-15T03:50:10;18.83;;;10.90;;
23628;SDS011;11991;57.150;-2.134;2022-11-15T03:52:59;11.05;;;6.32;;
23628;SDS011;11991;57.150;-2.134;2022-11-15T03:55:45;15.43;;;8.93;;
23628;SDS011;11991;57.150;-2.134;2022-11-15T03:58:31;11.27;;;6.80;;
23628;SDS011;11991;57.150;-2.134;2022-11-15T04:01:17;11.27;;;7.10;;
23628;SDS011;11991;57.150;-2.134;2022-11-15T04:04:04;17.10;;;9.98;;
23628;SDS011;11991;57.150;-2.134;2022-11-15T04:06:50;19.77;;;10.80;;
23628;SDS011;11991;57.150;-2.134;2022-11-15T04:09:35;17.58;;;11.75;;
23628;SDS011;11991;57.150;-2.134;2022-11-15T04:12:44;12.30;;;7.53;;
23628;SDS011;11991;57.150;-2.134;2022-11-15T04:15:34;17.30;;;10.20;;
23628;SDS011;11991;57.150;-2.134;2022-11-15T04:18:20;23.27;;;10.38;;
23628;SDS011;11991;57.150;-2.134;2022-11-15T04:21:07;15.00;;;8.63;;
23628;SDS011;11991;57.150;-2.134;2022-11-15T04:24:12;10.63;;;6.97;;
23628;SDS011;11991;57.150;-2.134;2022-11-15T04:26:59;9.18;;;6.30;;
23628;SDS011;11991;57.150;-2.134;2022-11-15T04:29:45;13.02;;;8.30;;
23628;SDS011;11991;57.150;-2.134;2022-11-15T04:32:31;11.65;;;7.97;;
23628;SDS011;11991;57.150;-2.134;2022-11-15T04:35:18;22.90;;;13.73;;
23628;SDS011;11991;57.150;-2.134;2022-11-15T04:38:04;19.52;;;10.70;;
23628;SDS011;11991;57.150;-2.134;2022-11-15T04:40:51;19.83;;;12.85;;
23628;SDS011;11991;57.150;-2.134;2022-11-15T04:43:37;14.68;;;9.05;;
23628;SDS011;11991;57.150;-2.134;2022-11-15T04:46:23;15.80;;;9.52;;
23628;SDS011;11991;57.150;-2.134;2022-11-15T04:49:09;10.57;;;6.72;;
23628;SDS011;11991;57.150;-2.134;2022-11-15T04:51:54;11.82;;;7.55;;
23628;SDS011;11991;57.150;-2.134;2022-11-15T04:54:41;17.10;;;10.27;;
23628;SDS011;11991;57.150;-2.134;2022-11-15T04:57:28;27.25;;;15.38;;
23628;SDS011;11991;57.150;-2.134;2022-11-15T05:00:14;15.82;;;9.27;;
23628;SDS011;11991;57.150;-2.134;2022-11-15T05:03:01;21.08;;;12.18;;
23628;SDS011;11991;57.150;-2.134;2022-11-15T05:06:06;15.27;;;9.15;;
23628;SDS011;11991;57.150;-2.134;2022-11-15T05:08:52;23.33;;;13.00;;
23628;SDS011;11991;57.150;-2.134;2022-11-15T05:11:38;19.45;;;11.77;;
23628;SDS011;11991;57.150;-2.134;2022-11-15T05:14:24;16.60;;;9.73;;
23628;SDS011;11991;57.150;-2.134;2022-11-15T05:17:10;18.02;;;10.10;;
23628;SDS011;11991;57.150;-2.134;2022-11-15T05:19:55;21.05;;;11.75;;
23628;SDS011;11991;57.150;-2.134;2022-11-15T05:22:41;16.67;;;10.40;;
23628;SDS011;11991;57.150;-2.134;2022-11-15T05:25:26;15.63;;;10.13;;
23628;SDS011;11991;57.150;-2.134;2022-11-15T05:28:13;18.30;;;10.98;;
23628;SDS011;11991;57.150;-2.134;2022-11-15T05:33:48;15.65;;;9.05;;
23628;SDS011;11991;57.150;-2.134;2022-11-15T05:36:37;18.88;;;12.15;;
23628;SDS011;11991;57.150;-2.134;2022-11-15T05:39:25;19.98;;;10.60;;
23628;SDS011;11991;57.150;-2.134;2022-11-15T05:42:13;13.70;;;7.82;;
23628;SDS011;11991;57.150;-2.134;2022-11-15T05:45:01;22.02;;;12.77;;
23628;SDS011;11991;57.150;-2.134;2022-11-15T05:47:50;16.27;;;9.20;;
23628;SDS011;11991;57.150;-2.134;2022-11-15T05:50:41;18.23;;;10.90;;
23628;SDS011;11991;57.150;-2.134;2022-11-15T05:53:30;23.60;;;12.60;;
23628;SDS011;11991;57.150;-2.134;2022-11-15T05:56:17;19.00;;;10.95;;
23628;SDS011;11991;57.150;-2.134;2022-11-15T05:59:03;13.30;;;8.70;;
23628;SDS011;11991;57.150;-2.134;2022-11-15T06:01:49;27.58;;;16.20;;
23628;SDS011;11991;57.150;-2.134;2022-11-15T06:04:34;23.95;;;14.68;;
23628;SDS011;11991;57.150;-2.134;2022-11-15T06:07:20;20.13;;;11.07;;
23628;SDS011;11991;57.150;-2.134;2022-11-15T06:10:06;18.98;;;11.63;;
23628;SDS011;11991;57.150;-2.134;2022-11-15T06:13:00;19.27;;;11.32;;
23628;SDS011;11991;57.150;-2.134;2022-11-15T06:15:47;12.88;;;9.32;;
23628;SDS011;11991;57.150;-2.134;2022-11-15T06:18:34;14.60;;;9.57;;
23628;SDS011;11991;57.150;-2.134;2022-11-15T06:21:21;23.77;;;14.45;;
23628;SDS011;11991;57.150;-2.134;2022-11-15T06:24:07;24.40;;;13.50;;
23628;SDS011;11991;57.150;-2.134;2022-11-15T06:26:53;23.35;;;13.07;;
23628;SDS011;11991;57.150;-2.134;2022-11-15T06:29:40;27.27;;;15.48;;
23628;SDS011;11991;57.150;-2.134;2022-11-15T06:32:25;26.73;;;15.43;;
23628;SDS011;11991;57.150;-2.134;2022-11-15T06:35:12;23.60;;;12.88;;
23628;SDS011;11991;57.150;-2.134;2022-11-15T06:38:03;32.05;;;17.42;;
23628;SDS011;11991;57.150;-2.134;2022-11-15T06:41:06;15.07;;;10.07;;
23628;SDS011;11991;57.150;-2.134;2022-11-15T06:43:53;19.83;;;12.60;;
23628;SDS011;11991;57.150;-2.134;2022-11-15T06:46:39;25.83;;;14.85;;
23628;SDS011;11991;57.150;-2.134;2022-11-15T06:49:25;20.40;;;11.20;;
23628;SDS011;11991;57.150;-2.134;2022-11-15T06:52:10;17.77;;;10.55;;
23628;SDS011;11991;57.150;-2.134;2022-11-15T06:54:56;18.23;;;10.68;;
23628;SDS011;11991;57.150;-2.134;2022-11-15T06:57:51;24.85;;;14.23;;
23628;SDS011;11991;57.150;-2.134;2022-11-15T07:00:37;17.83;;;10.55;;
23628;SDS011;11991;57.150;-2.134;2022-11-15T07:03:23;38.60;;;21.30;;
23628;SDS011;11991;57.150;-2.134;2022-11-15T07:06:10;24.33;;;12.90;;
23628;SDS011;11991;57.150;-2.134;2022-11-15T07:08:56;24.90;;;13.73;;
23628;SDS011;11991;57.150;-2.134;2022-11-15T07:11:42;20.10;;;11.00;;
23628;SDS011;11991;57.150;-2.134;2022-11-15T07:14:27;16.83;;;9.93;;
23628;SDS011;11991;57.150;-2.134;2022-11-15T07:17:13;12.35;;;7.93;;
23628;SDS011;11991;57.150;-2.134;2022-11-15T07:19:59;29.90;;;16.10;;
23628;SDS011;11991;57.150;-2.134;2022-11-15T07:22:44;15.13;;;9.52;;
23628;SDS011;11991;57.150;-2.134;2022-11-15T07:25:31;22.83;;;12.75;;
23628;SDS011;11991;57.150;-2.134;2022-11-15T07:28:17;16.52;;;9.25;;
23628;SDS011;11991;57.150;-2.134;2022-11-15T07:31:03;23.30;;;12.25;;
23628;SDS011;11991;57.150;-2.134;2022-11-15T07:33:51;29.70;;;16.08;;
23628;SDS011;11991;57.150;-2.134;2022-11-15T07:36:37;35.63;;;18.58;;
23628;SDS011;11991;57.150;-2.134;2022-11-15T07:39:22;30.13;;;16.00;;
23628;SDS011;11991;57.150;-2.134;2022-11-15T07:42:08;20.23;;;11.90;;
23628;SDS011;11991;57.150;-2.134;2022-11-15T07:45:13;21.63;;;11.23;;
23628;SDS011;11991;57.150;-2.134;2022-11-15T07:47:58;28.20;;;13.93;;
23628;SDS011;11991;57.150;-2.134;2022-11-15T07:50:44;25.48;;;13.25;;
23628;SDS011;11991;57.150;-2.134;2022-11-15T07:53:30;15.30;;;8.40;;
23628;SDS011;11991;57.150;-2.134;2022-11-15T07:56:19;13.48;;;7.95;;
23628;SDS011;11991;57.150;-2.134;2022-11-15T07:59:05;22.08;;;12.30;;
23628;SDS011;11991;57.150;-2.134;2022-11-15T08:01:51;18.17;;;10.18;;
23628;SDS011;11991;57.150;-2.134;2022-11-15T08:07:48;22.77;;;11.10;;
23628;SDS011;11991;57.150;-2.134;2022-11-15T08:10:36;25.10;;;12.85;;
23628;SDS011;11991;57.150;-2.134;2022-11-15T08:13:24;27.15;;;14.80;;
23628;SDS011;11991;57.150;-2.134;2022-11-15T08:16:10;34.88;;;18.00;;
23628;SDS011;11991;57.150;-2.134;2022-11-15T08:18:57;26.55;;;13.50;;
23628;SDS011;11991;57.150;-2.134;2022-11-15T08:21:42;35.33;;;17.05;;
23628;SDS011;11991;57.150;-2.134;2022-11-15T08:24:29;21.42;;;12.02;;
23628;SDS011;11991;57.150;-2.134;2022-11-15T08:27:17;40.10;;;19.75;;
23628;SDS011;11991;57.150;-2.134;2022-11-15T08:30:04;24.58;;;13.20;;
23628;SDS011;11991;57.150;-2.134;2022-11-15T08:32:55;29.38;;;15.65;;
23628;SDS011;11991;57.150;-2.134;2022-11-15T08:35:44;14.52;;;9.00;;
23628;SDS011;11991;57.150;-2.134;2022-11-15T08:38:44;18.92;;;10.90;;
23628;SDS011;11991;57.150;-2.134;2022-11-15T08:41:39;19.35;;;9.27;;
23628;SDS011;11991;57.150;-2.134;2022-11-15T08:44:25;20.60;;;11.23;;
23628;SDS011;11991;57.150;-2.134;2022-11-15T08:47:11;15.95;;;8.88;;
23628;SDS011;11991;57.150;-2.134;2022-11-15T08:49:58;18.40;;;11.40;;
23628;SDS011;11991;57.150;-2.134;2022-11-15T08:52:44;18.33;;;10.52;;
23628;SDS011;11991;57.150;-2.134;2022-11-15T08:55:40;29.50;;;17.33;;
23628;SDS011;11991;57.150;-2.134;2022-11-15T08:58:41;31.13;;;17.50;;
23628;SDS011;11991;57.150;-2.134;2022-11-15T09:01:50;21.05;;;11.80;;
23628;SDS011;11991;57.150;-2.134;2022-11-15T09:04:47;12.02;;;7.57;;
23628;SDS011;11991;57.150;-2.134;2022-11-15T09:07:52;26.95;;;14.15;;
23628;SDS011;11991;57.150;-2.134;2022-11-15T09:10:55;25.10;;;13.82;;
23628;SDS011;11991;57.150;-2.134;2022-11-15T09:13:57;25.17;;;13.13;;
23628;SDS011;11991;57.150;-2.134;2022-11-15T09:16:59;16.98;;;8.93;;
23628;SDS011;11991;57.150;-2.134;2022-11-15T09:20:02;19.35;;;11.95;;
23628;SDS011;11991;57.150;-2.134;2022-11-15T09:22:49;21.67;;;12.05;;
23628;SDS011;11991;57.150;-2.134;2022-11-15T09:25:34;23.65;;;13.38;;
23628;SDS011;11991;57.150;-2.134;2022-11-15T09:28:20;22.70;;;11.55;;
23628;SDS011;11991;57.150;-2.134;2022-11-15T09:31:07;20.45;;;12.35;;
23628;SDS011;11991;57.150;-2.134;2022-11-15T09:33:52;19.35;;;11.57;;
23628;SDS011;11991;57.150;-2.134;2022-11-15T09:36:38;23.85;;;11.07;;
23628;SDS011;11991;57.150;-2.134;2022-11-15T09:39:25;24.70;;;11.57;;
23628;SDS011;11991;57.150;-2.134;2022-11-15T09:42:30;19.35;;;11.10;;
23628;SDS011;11991;57.150;-2.134;2022-11-15T09:45:37;20.85;;;10.90;;
23628;SDS011;11991;57.150;-2.134;2022-11-15T09:49:06;27.48;;;15.20;;
23628;SDS011;11991;57.150;-2.134;2022-11-15T09:51:53;27.08;;;13.57;;
23628;SDS011;11991;57.150;-2.134;2022-11-15T09:54:32;27.40;;;14.73;;
23628;SDS011;11991;57.150;-2.134;2022-11-15T10:00:20;31.35;;;16.45;;
23628;SDS011;11991;57.150;-2.134;2022-11-15T10:03:13;21.05;;;11.27;;
23628;SDS011;11991;57.150;-2.134;2022-11-15T10:05:43;18.80;;;10.25;;
23628;SDS011;11991;57.150;-2.134;2022-11-15T10:08:22;17.45;;;9.93;;
23628;SDS011;11991;57.150;-2.134;2022-11-15T10:11:03;17.45;;;9.05;;
23628;SDS011;11991;57.150;-2.134;2022-11-15T10:14:01;16.35;;;9.00;;
23628;SDS011;11991;57.150;-2.134;2022-11-15T10:19:56;24.35;;;13.20;;
23628;SDS011;11991;57.150;-2.134;2022-11-15T10:23:10;15.45;;;9.45;;
23628;SDS011;11991;57.150;-2.134;2022-11-15T10:26:00;13.57;;;7.22;;
23628;SDS011;11991;57.150;-2.134;2022-11-15T10:28:34;26.35;;;12.25;;
23628;SDS011;11991;57.150;-2.134;2022-11-15T10:31:02;26.17;;;12.98;;
23628;SDS011;11991;57.150;-2.134;2022-11-15T10:33:32;19.00;;;10.07;;
23628;SDS011;11991;57.150;-2.134;2022-11-15T10:46:35;19.02;;;10.80;;
23628;SDS011;11991;57.150;-2.134;2022-11-15T10:49:14;24.70;;;14.60;;
23628;SDS011;11991;57.150;-2.134;2022-11-15T10:51:55;18.73;;;10.93;;
23628;SDS011;11991;57.150;-2.134;2022-11-15T10:57:52;28.45;;;15.10;;
23628;SDS011;11991;57.150;-2.134;2022-11-15T11:00:47;18.77;;;10.25;;
23628;SDS011;11991;57.150;-2.134;2022-11-15T11:03:29;12.05;;;7.50;;
23628;SDS011;11991;57.150;-2.134;2022-11-15T11:06:06;20.83;;;11.77;;
23628;SDS011;11991;57.150;-2.134;2022-11-15T11:08:39;28.63;;;16.90;;
23628;SDS011;11991;57.150;-2.134;2022-11-15T11:11:09;13.15;;;8.70;;
23628;SDS011;11991;57.150;-2.134;2022-11-15T11:13:37;21.73;;;11.82;;
23628;SDS011;11991;57.150;-2.134;2022-11-15T11:16:17;16.50;;;8.98;;
23628;SDS011;11991;57.150;-2.134;2022-11-15T11:24:42;12.65;;;8.23;;
23628;SDS011;11991;57.150;-2.134;2022-11-15T11:38:30;8.15;;;5.57;;
23628;SDS011;11991;57.150;-2.134;2022-11-15T11:47:00;11.90;;;5.18;;
23628;SDS011;11991;57.150;-2.134;2022-11-15T11:49:38;10.82;;;4.60;;
23628;SDS011;11991;57.150;-2.134;2022-11-15T11:52:17;9.73;;;4.47;;
23628;SDS011;11991;57.150;-2.134;2022-11-15T11:57:23;3.30;;;2.13;;
23628;SDS011;11991;57.150;-2.134;2022-11-15T12:02:48;5.82;;;2.40;;
23628;SDS011;11991;57.150;-2.134;2022-11-15T12:05:35;2.67;;;1.52;;
23628;SDS011;11991;57.150;-2.134;2022-11-15T12:10:50;5.25;;;1.95;;
23628;SDS011;11991;57.150;-2.134;2022-11-15T12:13:25;3.78;;;1.83;;
23628;SDS011;11991;57.150;-2.134;2022-11-15T12:15:57;5.47;;;1.83;;
23628;SDS011;11991;57.150;-2.134;2022-11-15T12:18:35;3.05;;;1.27;;
23628;SDS011;11991;57.150;-2.134;2022-11-15T12:21:06;2.63;;;1.52;;
23628;SDS011;11991;57.150;-2.134;2022-11-15T12:23:46;2.65;;;1.45;;
23628;SDS011;11991;57.150;-2.134;2022-11-15T12:26:22;4.82;;;2.47;;
23628;SDS011;11991;57.150;-2.134;2022-11-15T12:29:00;4.43;;;2.33;;
23628;SDS011;11991;57.150;-2.134;2022-11-15T12:31:55;4.55;;;2.20;;
23628;SDS011;11991;57.150;-2.134;2022-11-15T12:34:50;6.28;;;2.47;;
23628;SDS011;11991;57.150;-2.134;2022-11-15T12:45:43;4.88;;;2.00;;
23628;SDS011;11991;57.150;-2.134;2022-11-15T12:58:49;3.83;;;2.03;;
23628;SDS011;11991;57.150;-2.134;2022-11-15T13:04:13;5.47;;;2.30;;
23628;SDS011;11991;57.150;-2.134;2022-11-15T13:12:08;3.08;;;1.98;;
23628;SDS011;11991;57.150;-2.134;2022-11-15T13:14:51;5.18;;;2.53;;
23628;SDS011;11991;57.150;-2.134;2022-11-15T13:22:49;7.38;;;2.90;;
23628;SDS011;11991;57.150;-2.134;2022-11-15T13:25:26;5.28;;;2.17;;
23628;SDS011;11991;57.150;-2.134;2022-11-15T13:27:54;4.00;;;1.95;;
23628;SDS011;11991;57.150;-2.134;2022-11-15T13:30:30;4.60;;;2.28;;
23628;SDS011;11991;57.150;-2.134;2022-11-15T13:32:58;11.77;;;3.85;;
23628;SDS011;11991;57.150;-2.134;2022-11-15T13:35:36;3.13;;;2.13;;
23628;SDS011;11991;57.150;-2.134;2022-11-15T13:38:11;8.07;;;3.03;;
23628;SDS011;11991;57.150;-2.134;2022-11-15T13:40:51;6.80;;;2.63;;
23628;SDS011;11991;57.150;-2.134;2022-11-15T13:43:34;7.95;;;3.05;;
23628;SDS011;11991;57.150;-2.134;2022-11-15T13:46:19;8.25;;;3.00;;
23628;SDS011;11991;57.150;-2.134;2022-11-15T13:48:51;2.50;;;1.65;;
23628;SDS011;11991;57.150;-2.134;2022-11-15T13:57:02;7.85;;;3.35;;
23628;SDS011;11991;57.150;-2.134;2022-11-15T14:02:16;6.47;;;2.42;;
23628;SDS011;11991;57.150;-2.134;2022-11-15T14:04:57;6.30;;;2.45;;
23628;SDS011;11991;57.150;-2.134;2022-11-15T14:07:31;5.22;;;2.53;;
23628;SDS011;11991;57.150;-2.134;2022-11-15T14:13:00;5.60;;;2.67;;
23628;SDS011;11991;57.150;-2.134;2022-11-15T14:15:30;10.48;;;3.25;;
23628;SDS011;11991;57.150;-2.134;2022-11-15T14:18:03;9.82;;;3.00;;
23628;SDS011;11991;57.150;-2.134;2022-11-15T14:23:18;4.22;;;1.80;;
23628;SDS011;11991;57.150;-2.134;2022-11-15T14:25:52;7.43;;;3.20;;
23628;SDS011;11991;57.150;-2.134;2022-11-15T14:28:33;9.30;;;2.97;;
23628;SDS011;11991;57.150;-2.134;2022-11-15T14:31:33;13.60;;;3.85;;
23628;SDS011;11991;57.150;-2.134;2022-11-15T14:36:59;9.73;;;2.75;;
23628;SDS011;11991;57.150;-2.134;2022-11-15T14:39:26;14.40;;;3.17;;
23628;SDS011;11991;57.150;-2.134;2022-11-15T14:41:54;6.90;;;2.35;;
23628;SDS011;11991;57.150;-2.134;2022-11-15T14:44:21;8.57;;;2.58;;
23628;SDS011;11991;57.150;-2.134;2022-11-15T14:46:48;11.32;;;2.80;;
23628;SDS011;11991;57.150;-2.134;2022-11-15T14:49:15;6.32;;;2.35;;
23628;SDS011;11991;57.150;-2.134;2022-11-15T14:51:43;7.70;;;2.30;;
23628;SDS011;11991;57.150;-2.134;2022-11-15T14:54:10;9.70;;;3.10;;
23628;SDS011;11991;57.150;-2.134;2022-11-15T14:56:37;8.77;;;2.80;;
23628;SDS011;11991;57.150;-2.134;2022-11-15T14:59:04;11.10;;;3.08;;
23628;SDS011;11991;57.150;-2.134;2022-11-15T15:01:31;6.55;;;2.60;;
23628;SDS011;11991;57.150;-2.134;2022-11-15T15:04:00;6.90;;;2.35;;
23628;SDS011;11991;57.150;-2.134;2022-11-15T15:06:27;5.03;;;1.48;;
23628;SDS011;11991;57.150;-2.134;2022-11-15T15:08:55;8.70;;;2.70;;
23628;SDS011;11991;57.150;-2.134;2022-11-15T15:11:23;8.63;;;2.95;;
23628;SDS011;11991;57.150;-2.134;2022-11-15T15:13:56;11.75;;;2.38;;
23628;SDS011;11991;57.150;-2.134;2022-11-15T15:16:26;6.05;;;1.67;;
23628;SDS011;11991;57.150;-2.134;2022-11-15T15:18:54;9.80;;;2.50;;
23628;SDS011;11991;57.150;-2.134;2022-11-15T15:21:25;9.45;;;2.33;;
23628;SDS011;11991;57.150;-2.134;2022-11-15T15:24:02;7.93;;;2.47;;
23628;SDS011;11991;57.150;-2.134;2022-11-15T15:26:30;11.15;;;2.60;;
23628;SDS011;11991;57.150;-2.134;2022-11-15T15:29:03;11.23;;;3.47;;
23628;SDS011;11991;57.150;-2.134;2022-11-15T15:31:30;9.30;;;2.55;;
23628;SDS011;11991;57.150;-2.134;2022-11-15T15:33:59;11.32;;;2.60;;
23628;SDS011;11991;57.150;-2.134;2022-11-15T15:36:26;9.82;;;2.50;;
23628;SDS011;11991;57.150;-2.134;2022-11-15T15:38:54;12.82;;;2.13;;
23628;SDS011;11991;57.150;-2.134;2022-11-15T15:41:21;10.30;;;2.60;;
23628;SDS011;11991;57.150;-2.134;2022-11-15T15:43:49;7.97;;;1.80;;
23628;SDS011;11991;57.150;-2.134;2022-11-15T15:46:17;9.02;;;2.88;;
23628;SDS011;11991;57.150;-2.134;2022-11-15T15:48:46;9.10;;;2.40;;
23628;SDS011;11991;57.150;-2.134;2022-11-15T15:51:13;7.80;;;2.05;;
23628;SDS011;11991;57.150;-2.134;2022-11-15T15:53:46;9.10;;;2.55;;
23628;SDS011;11991;57.150;-2.134;2022-11-15T15:56:14;8.98;;;2.22;;
23628;SDS011;11991;57.150;-2.134;2022-11-15T15:58:42;13.25;;;3.00;;
23628;SDS011;11991;57.150;-2.134;2022-11-15T16:01:09;11.23;;;2.78;;
23628;SDS011;11991;57.150;-2.134;2022-11-15T16:03:36;9.63;;;2.50;;
23628;SDS011;11991;57.150;-2.134;2022-11-15T16:06:03;6.72;;;2.35;;
23628;SDS011;11991;57.150;-2.134;2022-11-15T16:08:31;10.05;;;2.50;;
23628;SDS011;11991;57.150;-2.134;2022-11-15T16:11:44;8.18;;;1.92;;
23628;SDS011;11991;57.150;-2.134;2022-11-15T16:14:15;13.25;;;3.85;;
23628;SDS011;11991;57.150;-2.134;2022-11-15T16:16:43;19.25;;;3.85;;
23628;SDS011;11991;57.150;-2.134;2022-11-15T16:19:10;16.67;;;3.33;;
23628;SDS011;11991;57.150;-2.134;2022-11-15T16:21:38;5.57;;;1.58;;
23628;SDS011;11991;57.150;-2.134;2022-11-15T16:24:06;9.73;;;2.83;;
23628;SDS011;11991;57.150;-2.134;2022-11-15T16:26:33;4.00;;;1.58;;
23628;SDS011;11991;57.150;-2.134;2022-11-15T16:29:02;11.02;;;3.25;;
23628;SDS011;11991;57.150;-2.134;2022-11-15T16:31:29;15.23;;;3.38;;
23628;SDS011;11991;57.150;-2.134;2022-11-15T16:33:57;7.97;;;2.78;;
23628;SDS011;11991;57.150;-2.134;2022-11-15T16:36:25;3.35;;;1.60;;
23628;SDS011;11991;57.150;-2.134;2022-11-15T16:38:56;7.07;;;2.20;;
23628;SDS011;11991;57.150;-2.134;2022-11-15T16:41:25;15.95;;;3.90;;
23628;SDS011;11991;57.150;-2.134;2022-11-15T16:43:52;5.90;;;2.35;;
23628;SDS011;11991;57.150;-2.134;2022-11-15T16:46:23;8.43;;;2.30;;
23628;SDS011;11991;57.150;-2.134;2022-11-15T16:48:52;9.82;;;2.78;;
23628;SDS011;11991;57.150;-2.134;2022-11-15T16:51:20;6.32;;;1.88;;
23628;SDS011;11991;57.150;-2.134;2022-11-15T16:54:12;6.40;;;2.22;;
23628;SDS011;11991;57.150;-2.134;2022-11-15T16:56:41;8.18;;;2.97;;
23628;SDS011;11991;57.150;-2.134;2022-11-15T16:59:10;8.90;;;2.38;;
23628;SDS011;11991;57.150;-2.134;2022-11-15T17:01:43;11.00;;;2.35;;
23628;SDS011;11991;57.150;-2.134;2022-11-15T17:04:18;5.75;;;2.13;;
23628;SDS011;11991;57.150;-2.134;2022-11-15T17:06:48;9.00;;;2.08;;
23628;SDS011;11991;57.150;-2.134;2022-11-15T17:09:17;11.93;;;3.25;;
23628;SDS011;11991;57.150;-2.134;2022-11-15T17:11:51;12.63;;;2.90;;
23628;SDS011;11991;57.150;-2.134;2022-11-15T17:14:19;9.63;;;2.38;;
23628;SDS011;11991;57.150;-2.134;2022-11-15T17:16:46;12.50;;;3.05;;
23628;SDS011;11991;57.150;-2.134;2022-11-15T17:19:14;15.55;;;3.25;;
23628;SDS011;11991;57.150;-2.134;2022-11-15T17:21:43;7.55;;;2.17;;
23628;SDS011;11991;57.150;-2.134;2022-11-15T17:24:12;3.97;;;1.60;;
23628;SDS011;11991;57.150;-2.134;2022-11-15T17:26:40;5.60;;;2.03;;
23628;SDS011;11991;57.150;-2.134;2022-11-15T17:29:08;6.78;;;2.33;;
23628;SDS011;11991;57.150;-2.134;2022-11-15T17:31:35;7.03;;;2.28;;
23628;SDS011;11991;57.150;-2.134;2022-11-15T17:34:05;9.45;;;2.20;;
23628;SDS011;11991;57.150;-2.134;2022-11-15T17:36:33;8.68;;;2.50;;
23628;SDS011;11991;57.150;-2.134;2022-11-15T17:39:49;10.48;;;2.75;;
23628;SDS011;11991;57.150;-2.134;2022-11-15T17:42:17;7.20;;;2.13;;
23628;SDS011;11991;57.150;-2.134;2022-11-15T17:44:44;7.90;;;2.75;;
23628;SDS011;11991;57.150;-2.134;2022-11-15T17:47:12;8.25;;;2.17;;
23628;SDS011;11991;57.150;-2.134;2022-11-15T17:49:39;3.33;;;1.30;;
23628;SDS011;11991;57.150;-2.134;2022-11-15T17:52:06;3.63;;;1.38;;
23628;SDS011;11991;57.150;-2.134;2022-11-15T17:54:34;6.38;;;2.03;;
23628;SDS011;11991;57.150;-2.134;2022-11-15T17:57:01;6.03;;;2.17;;
23628;SDS011;11991;57.150;-2.134;2022-11-15T17:59:28;12.43;;;3.13;;
23628;SDS011;11991;57.150;-2.134;2022-11-15T18:01:55;7.68;;;2.58;;
23628;SDS011;11991;57.150;-2.134;2022-11-15T18:04:22;7.43;;;2.67;;
23628;SDS011;11991;57.150;-2.134;2022-11-15T18:06:54;4.20;;;1.00;;
23628;SDS011;11991;57.150;-2.134;2022-11-15T18:09:21;8.13;;;2.20;;
23628;SDS011;11991;57.150;-2.134;2022-11-15T18:11:50;5.32;;;1.40;;
23628;SDS011;11991;57.150;-2.134;2022-11-15T18:14:20;4.38;;;1.13;;